createdAt,value
2023-01-23T00:01:37.240Z,0.20
2023-01-23T00:06:55.778Z,0.10
2023-01-23T00:09:23.845Z,0.20
2023-01-23T00:11:53.770Z,0.20
2023-01-23T00:14:21.769Z,0.20
2023-01-23T00:16:49.875Z,0.10
2023-01-23T00:19:18.717Z,0.10
2023-01-23T00:21:46.811Z,0.10
2023-01-23T00:24:15.170Z,0.20
2023-01-23T00:26:43.345Z,0.20
2023-01-23T00:29:15.466Z,0.20
2023-01-23T00:31:43.728Z,0.20
2023-01-23T00:34:14.102Z,0.20
2023-01-23T00:36:44.943Z,0.20
2023-01-23T00:39:16.468Z,0.20
2023-01-23T00:41:45.673Z,0.20
2023-01-23T00:44:15.274Z,0.20
2023-01-23T00:46:43.347Z,0.20
2023-01-23T00:49:11.721Z,0.10
2023-01-23T00:51:39.681Z,0.20
2023-01-23T00:54:07.762Z,0.10
2023-01-23T00:56:35.681Z,0.10
2023-01-23T00:59:03.596Z,0.10
2023-01-23T01:01:33.223Z,0.10
2023-01-23T01:04:01.988Z,0.20
2023-01-23T01:06:30.277Z,0.20
2023-01-23T01:09:00.682Z,0.20
2023-01-23T01:11:29.197Z,0.20
2023-01-23T01:14:00.300Z,0.20
2023-01-23T01:16:28.346Z,0.20
2023-01-23T01:19:00.920Z,0.20
2023-01-23T01:21:29.075Z,0.20
2023-01-23T01:23:57.509Z,0.20
2023-01-23T01:26:28.814Z,0.20
2023-01-23T01:28:56.917Z,0.10
2023-01-23T01:31:25.042Z,0.10
2023-01-23T01:33:55.624Z,0.20
2023-01-23T01:36:30.209Z,0.20
2023-01-23T01:38:58.606Z,0.20
2023-01-23T01:41:26.702Z,0.20
2023-01-23T01:43:57.097Z,0.20
2023-01-23T01:46:27.038Z,0.20
2023-01-23T01:49:05.479Z,0.20
2023-01-23T01:51:37.244Z,0.20
2023-01-23T01:54:12.168Z,0.30
2023-01-23T01:56:46.943Z,0.30
2023-01-23T01:59:16.143Z,0.20
2023-01-23T02:01:48.389Z,0.30
2023-01-23T02:04:17.082Z,0.30
2023-01-23T02:06:46.876Z,0.30
2023-01-23T02:09:19.949Z,0.30
2023-01-23T02:11:49.650Z,0.30
2023-01-23T02:14:21.225Z,0.30
2023-01-23T02:16:52.761Z,0.30
2023-01-23T02:19:41.469Z,0.30
2023-01-23T02:22:20.887Z,0.30
2023-01-23T02:25:00.732Z,0.20
2023-01-23T02:27:30.012Z,0.30
2023-01-23T02:29:58.552Z,0.20
2023-01-23T02:32:32.068Z,0.20
2023-01-23T02:35:06.095Z,0.20
2023-01-23T02:37:36.156Z,0.20
2023-01-23T02:40:05.911Z,0.20
2023-01-23T02:42:38.992Z,0.20
2023-01-23T02:45:09.766Z,0.20
2023-01-23T02:47:38.103Z,0.20
2023-01-23T02:50:06.816Z,0.20
2023-01-23T02:52:35.722Z,0.20
2023-01-23T02:55:03.715Z,0.20
2023-01-23T02:57:31.843Z,0.10
2023-01-23T03:00:20.926Z,0.10
2023-01-23T03:02:51.572Z,0.10
2023-01-23T03:05:20.109Z,0.10
2023-01-23T03:07:49.875Z,0.10
2023-01-23T03:10:18.588Z,0.10
2023-01-23T03:12:47.403Z,0.00
2023-01-23T03:15:17.528Z,0.00
2023-01-23T03:17:45.495Z,0.10
2023-01-23T03:20:15.128Z,0.10
2023-01-23T03:22:43.500Z,0.10
2023-01-23T03:25:11.729Z,0.20
2023-01-23T03:27:39.916Z,0.20
2023-01-23T03:30:17.251Z,0.20
2023-01-23T03:32:47.566Z,0.20
2023-01-23T03:35:20.054Z,0.20
2023-01-23T03:37:51.026Z,0.20
2023-01-23T03:40:38.903Z,0.20
2023-01-23T03:43:08.042Z,0.10
2023-01-23T03:45:40.907Z,0.10
2023-01-23T03:48:10.557Z,0.10
2023-01-23T03:50:38.836Z,0.10
2023-01-23T03:53:07.159Z,0.10
2023-01-23T03:55:35.217Z,0.20
2023-01-23T03:58:04.331Z,0.20
2023-01-23T04:00:33.488Z,0.20
2023-01-23T04:03:05.924Z,0.20
2023-01-23T04:05:38.766Z,0.20
2023-01-23T04:08:07.268Z,0.20
2023-01-23T04:10:37.093Z,0.20
2023-01-23T04:13:11.732Z,0.20
2023-01-23T04:15:40.756Z,0.20
2023-01-23T04:18:08.684Z,0.20
2023-01-23T04:20:37.947Z,0.20
2023-01-23T04:23:07.351Z,0.20
2023-01-23T04:25:35.315Z,0.20
2023-01-23T04:28:04.977Z,0.30
2023-01-23T04:30:33.852Z,0.20
2023-01-23T04:33:09.697Z,0.20
2023-01-23T04:35:39.991Z,0.30
2023-01-23T04:38:10.486Z,0.30
2023-01-23T04:40:39.430Z,0.30
2023-01-23T04:43:07.406Z,0.20
2023-01-23T04:45:40.445Z,0.30
2023-01-23T04:48:27.644Z,0.20
2023-01-23T04:50:57.136Z,0.20
2023-01-23T04:53:25.606Z,0.20
2023-01-23T04:56:01.189Z,0.20
2023-01-23T04:58:29.219Z,0.20
2023-01-23T05:01:03.481Z,0.30
2023-01-23T05:03:35.351Z,0.30
2023-01-23T05:06:05.056Z,0.30
2023-01-23T05:08:33.043Z,0.30
2023-01-23T05:11:14.206Z,0.30
2023-01-23T05:13:42.374Z,0.30
2023-01-23T05:16:11.301Z,0.30
2023-01-23T05:18:59.323Z,0.30
2023-01-23T05:21:29.392Z,0.30
2023-01-23T05:23:58.298Z,0.30
2023-01-23T05:26:26.192Z,0.30
2023-01-23T05:28:56.321Z,0.20
2023-01-23T05:31:26.229Z,0.30
2023-01-23T05:34:21.806Z,0.30
2023-01-23T05:36:51.580Z,0.30
2023-01-23T05:39:20.764Z,0.30
2023-01-23T05:41:48.732Z,0.30
2023-01-23T05:44:31.901Z,0.30
2023-01-23T05:47:13.173Z,0.30
2023-01-23T05:49:41.099Z,0.30
2023-01-23T05:52:10.584Z,0.30
2023-01-23T05:54:38.564Z,0.30
2023-01-23T05:57:06.794Z,0.30
2023-01-23T05:59:54.373Z,0.30
2023-01-23T06:02:40.854Z,0.30
2023-01-23T06:05:27.531Z,0.30
2023-01-23T06:08:05.184Z,0.30
2023-01-23T06:10:33.256Z,0.30
2023-01-23T06:13:01.980Z,0.30
2023-01-23T06:18:19.977Z,0.30
2023-01-23T06:20:48.897Z,0.30
2023-01-23T06:23:18.394Z,0.30
2023-01-23T06:25:46.421Z,0.20
2023-01-23T06:28:15.420Z,0.30
2023-01-23T06:30:44.876Z,0.20
2023-01-23T06:33:23.715Z,0.30
2023-01-23T06:35:58.712Z,0.20
2023-01-23T06:38:29.091Z,0.20
2023-01-23T06:40:59.050Z,0.30
2023-01-23T06:43:37.545Z,0.30
2023-01-23T06:46:09.453Z,0.30
2023-01-23T06:48:37.785Z,0.30
2023-01-23T06:51:07.276Z,0.30
2023-01-23T06:53:36.871Z,0.30
2023-01-23T06:56:07.244Z,0.30
2023-01-23T06:58:39.105Z,0.30
2023-01-23T07:01:11.325Z,0.30
2023-01-23T07:03:57.901Z,0.30
2023-01-23T07:06:26.355Z,0.30
2023-01-23T07:08:55.693Z,0.30
2023-01-23T07:11:24.421Z,0.30
2023-01-23T07:13:52.323Z,0.40
2023-01-23T07:16:20.854Z,0.40
2023-01-23T07:18:49.192Z,0.40
2023-01-23T07:21:17.169Z,0.40
2023-01-23T07:23:45.145Z,0.40
2023-01-23T07:26:14.862Z,0.40
2023-01-23T07:28:43.725Z,0.40
2023-01-23T07:31:12.057Z,0.40
2023-01-23T07:33:40.012Z,0.40
2023-01-23T07:36:09.160Z,0.50
2023-01-23T07:38:37.560Z,0.50
2023-01-23T07:41:05.777Z,0.50
2023-01-23T07:43:35.144Z,0.50
2023-01-23T07:46:04.147Z,0.50
2023-01-23T07:48:32.212Z,0.50
2023-01-23T07:51:03.890Z,0.40
2023-01-23T07:53:32.720Z,0.40
2023-01-23T07:56:02.283Z,0.50
2023-01-23T07:58:30.163Z,0.50
2023-01-23T08:00:59.578Z,0.40
2023-01-23T08:03:29.061Z,0.40
2023-01-23T08:05:57.153Z,0.50
2023-01-23T08:08:25.054Z,0.60
2023-01-23T08:10:53.066Z,0.50
2023-01-23T08:13:21.032Z,0.50
2023-01-23T08:15:48.936Z,0.60
2023-01-23T08:18:18.240Z,0.60
2023-01-23T08:20:53.156Z,0.60
2023-01-23T08:23:21.508Z,0.70
2023-01-23T08:25:54.358Z,0.70
2023-01-23T08:28:23.596Z,0.70
2023-01-23T08:30:51.963Z,0.60
2023-01-23T08:33:22.542Z,0.70
2023-01-23T08:35:51.758Z,0.80
2023-01-23T08:38:19.956Z,0.80
2023-01-23T08:40:48.877Z,0.80
2023-01-23T08:43:20.629Z,0.80
2023-01-23T08:45:51.399Z,0.90
2023-01-23T08:48:21.953Z,0.90
2023-01-23T08:50:50.439Z,1.00
2023-01-23T08:53:18.834Z,1.00
2023-01-23T08:55:47.134Z,1.00
2023-01-23T08:58:15.136Z,1.00
2023-01-23T09:00:43.311Z,1.00
2023-01-23T09:03:11.676Z,1.10
2023-01-23T09:05:40.919Z,1.00
2023-01-23T09:08:09.095Z,1.10
2023-01-23T09:10:37.579Z,1.20
2023-01-23T09:13:06.207Z,1.20
2023-01-23T09:15:34.551Z,1.20
2023-01-23T09:18:02.493Z,1.30
2023-01-23T09:20:31.440Z,1.30
2023-01-23T09:23:00.715Z,1.30
2023-01-23T09:25:31.189Z,1.30
2023-01-23T09:27:59.251Z,1.30
2023-01-23T09:30:27.215Z,1.30
2023-01-23T09:32:55.827Z,1.30
2023-01-23T09:35:24.545Z,1.30
2023-01-23T09:38:01.422Z,1.40
2023-01-23T09:40:33.533Z,1.50
2023-01-23T09:43:05.947Z,1.50
2023-01-23T09:45:35.794Z,1.50
2023-01-23T09:48:16.880Z,1.60
2023-01-23T09:50:58.391Z,1.70
2023-01-23T09:53:33.107Z,1.70
2023-01-23T09:56:08.709Z,1.70
2023-01-23T09:58:43.046Z,1.70
2023-01-23T10:01:13.697Z,1.80
2023-01-23T10:03:42.477Z,1.90
2023-01-23T10:06:21.130Z,1.90
2023-01-23T10:09:05.835Z,1.90
2023-01-23T10:11:46.651Z,2.00
2023-01-23T10:14:30.169Z,2.10
2023-01-23T10:17:08.241Z,2.10
2023-01-23T10:19:55.093Z,2.10
2023-01-23T10:22:38.250Z,2.10
2023-01-23T10:25:15.807Z,2.20
2023-01-23T10:27:47.745Z,2.30
2023-01-23T10:30:22.548Z,2.30
2023-01-23T10:32:53.968Z,2.40
2023-01-23T10:35:27.915Z,2.30
2023-01-23T10:38:03.716Z,2.40
2023-01-23T10:40:49.416Z,2.30
2023-01-23T10:43:23.696Z,2.40
2023-01-23T10:45:52.289Z,2.50
2023-01-23T10:48:40.821Z,2.60
2023-01-23T10:51:36.894Z,2.60
2023-01-23T10:54:31.270Z,2.40
2023-01-23T10:57:02.038Z,2.60
2023-01-23T10:59:35.668Z,2.70
2023-01-23T11:02:19.187Z,2.90
2023-01-23T11:04:48.872Z,2.90
2023-01-23T11:07:18.923Z,2.70
2023-01-23T11:09:49.847Z,2.70
2023-01-23T11:12:21.054Z,2.70
2023-01-23T11:14:51.086Z,2.70
2023-01-23T11:17:22.825Z,2.80
2023-01-23T11:19:53.610Z,2.90
2023-01-23T11:22:33.528Z,3.00
2023-01-23T11:30:04.071Z,3.50
2023-01-23T11:32:37.036Z,3.80
2023-01-23T11:35:14.136Z,4.00
2023-01-23T11:37:43.095Z,3.90
2023-01-23T11:40:15.321Z,4.00
2023-01-23T11:42:45.110Z,4.00
2023-01-23T11:45:33.980Z,4.00
2023-01-23T11:48:15.482Z,3.80
2023-01-23T11:50:57.123Z,3.80
2023-01-23T11:53:42.220Z,3.80
2023-01-23T11:56:38.160Z,3.60
2023-01-23T11:59:39.555Z,3.70
2023-01-23T12:02:27.394Z,3.80
2023-01-23T12:05:08.571Z,3.90
2023-01-23T12:07:46.396Z,3.80
2023-01-23T12:10:25.143Z,3.90
2023-01-23T12:13:10.769Z,3.90
2023-01-23T12:15:45.448Z,3.90
2023-01-23T12:18:30.090Z,3.80
2023-01-23T12:21:06.493Z,3.80
2023-01-23T12:23:51.676Z,3.80
2023-01-23T12:26:22.891Z,3.80
2023-01-23T12:29:07.380Z,3.70
2023-01-23T12:31:57.890Z,3.80
2023-01-23T12:34:51.881Z,3.80
2023-01-23T12:37:36.067Z,3.90
2023-01-23T12:40:13.219Z,4.00
2023-01-23T12:42:47.530Z,4.10
2023-01-23T12:45:22.050Z,4.10
2023-01-23T12:47:56.433Z,4.00
2023-01-23T12:50:34.208Z,3.90
2023-01-23T12:53:08.740Z,3.80
2023-01-23T12:55:40.289Z,3.80
2023-01-23T12:58:13.672Z,3.70
2023-01-23T13:01:00.326Z,3.70
2023-01-23T13:03:56.996Z,3.70
2023-01-23T13:07:03.591Z,3.70
2023-01-23T13:09:42.504Z,3.60
2023-01-23T13:12:19.731Z,3.60
2023-01-23T13:17:41.570Z,3.60
2023-01-23T13:20:42.329Z,3.60
2023-01-23T13:23:32.169Z,3.60
2023-01-23T13:26:29.979Z,3.60
2023-01-23T13:29:02.183Z,3.60
2023-01-23T13:31:45.282Z,3.60
2023-01-23T13:34:37.215Z,3.60
2023-01-23T13:37:51.246Z,3.50
2023-01-23T13:40:25.643Z,3.50
2023-01-23T13:42:53.849Z,3.50
2023-01-23T13:45:32.010Z,3.40
2023-01-23T14:24:46.300Z,3.30
2023-01-23T14:27:29.519Z,3.20
2023-01-23T14:29:59.425Z,3.20
2023-01-23T14:32:31.425Z,3.20
2023-01-23T14:34:59.943Z,3.20
2023-01-23T14:37:29.186Z,3.20
2023-01-23T14:40:09.805Z,3.20
2023-01-23T14:42:40.753Z,3.20
2023-01-23T14:45:13.902Z,3.20
2023-01-23T14:47:48.870Z,3.20
2023-01-23T14:50:24.340Z,3.20
2023-01-23T14:52:58.649Z,3.20
2023-01-23T14:55:30.244Z,3.20
2023-01-23T14:58:01.014Z,3.20
2023-01-23T15:00:32.172Z,3.20
2023-01-23T15:03:04.244Z,3.20
2023-01-23T15:05:33.334Z,3.10
2023-01-23T15:08:04.194Z,3.10
2023-01-23T15:10:45.297Z,3.10
2023-01-23T15:13:21.295Z,3.10
2023-01-23T15:15:54.753Z,3.10
2023-01-23T15:18:26.279Z,3.10
2023-01-23T15:20:56.804Z,3.10
2023-01-23T15:23:32.135Z,3.10
2023-01-23T15:26:23.573Z,3.00
2023-01-23T15:28:54.163Z,3.00
2023-01-23T15:31:26.066Z,2.90
2023-01-23T15:33:57.266Z,2.90
2023-01-23T15:41:14.809Z,2.90
2023-01-23T15:43:45.609Z,2.90
2023-01-23T15:54:27.845Z,2.80
2023-01-23T15:57:06.458Z,2.80
2023-01-23T15:59:37.234Z,2.80
2023-01-23T16:02:05.690Z,2.80
2023-01-23T16:04:35.099Z,2.80
2023-01-23T16:07:07.166Z,2.80
2023-01-23T16:09:39.074Z,2.70
2023-01-23T16:12:10.617Z,2.70
2023-01-23T16:14:39.891Z,2.70
2023-01-23T16:17:16.360Z,2.70
2023-01-23T16:19:46.706Z,2.70
2023-01-23T16:22:22.338Z,2.70
2023-01-23T16:29:19.027Z,2.70
2023-01-23T16:31:47.135Z,2.70
2023-01-23T16:34:15.720Z,2.70
2023-01-23T16:36:43.746Z,2.70
2023-01-23T16:39:18.473Z,2.60
2023-01-23T16:41:46.868Z,2.60
2023-01-23T16:44:18.723Z,2.60
2023-01-23T16:46:47.695Z,2.60
2023-01-23T16:49:16.692Z,2.60
2023-01-23T16:51:48.694Z,2.60
2023-01-23T16:54:19.356Z,2.60
2023-01-23T16:56:50.924Z,2.60
2023-01-23T16:59:22.852Z,2.60
2023-01-23T17:01:52.856Z,2.60
2023-01-23T17:04:22.459Z,2.60
2023-01-23T17:06:51.706Z,2.60
2023-01-23T17:09:19.718Z,2.60
2023-01-23T17:11:50.585Z,2.60
2023-01-23T17:14:24.215Z,2.60
2023-01-23T17:16:53.152Z,2.60
2023-01-23T17:19:29.141Z,2.60
2023-01-23T17:21:58.976Z,2.60
2023-01-23T17:24:27.392Z,2.60
2023-01-23T17:26:55.493Z,2.60
2023-01-23T17:29:26.009Z,2.50
2023-01-23T17:31:54.747Z,2.60
2023-01-23T17:34:24.696Z,2.60
2023-01-23T17:36:54.360Z,2.60
2023-01-23T17:39:22.906Z,2.60
2023-01-23T17:41:51.720Z,2.50
2023-01-23T17:44:22.174Z,2.50
2023-01-23T17:46:54.776Z,2.50
2023-01-23T17:49:29.578Z,2.50
2023-01-23T17:52:00.500Z,2.50
2023-01-23T17:54:28.805Z,2.50
2023-01-23T17:56:57.013Z,2.50
2023-01-23T17:59:25.217Z,2.50
2023-01-23T18:01:54.577Z,2.50
2023-01-23T18:04:23.551Z,2.40
2023-01-23T18:06:52.521Z,2.50
2023-01-23T18:09:22.279Z,2.50
2023-01-23T18:11:54.279Z,2.50
2023-01-23T18:14:34.310Z,2.50
2023-01-23T18:17:14.280Z,2.50
2023-01-23T18:19:42.887Z,2.50
2023-01-23T18:22:12.545Z,2.50
2023-01-23T18:24:41.067Z,2.50
2023-01-23T18:27:20.193Z,2.50
2023-01-23T18:30:04.438Z,2.50
2023-01-23T18:32:57.888Z,2.50
2023-01-23T18:35:37.787Z,2.50
2023-01-23T18:38:13.258Z,2.40
2023-01-23T18:40:49.262Z,2.40
2023-01-23T18:43:32.628Z,2.40
2023-01-23T18:46:01.113Z,2.50
2023-01-23T18:48:31.657Z,2.40
2023-01-23T18:51:08.725Z,2.40
2023-01-23T18:53:48.054Z,2.50
2023-01-23T18:56:27.362Z,2.50
2023-01-23T18:59:12.025Z,2.50
2023-01-23T19:01:50.396Z,2.50
2023-01-23T19:04:25.779Z,2.40
2023-01-23T19:06:54.245Z,2.40
2023-01-23T19:09:22.866Z,2.40
2023-01-23T19:12:03.001Z,2.50
2023-01-23T19:14:50.927Z,2.40
2023-01-23T19:17:29.105Z,2.40
2023-01-23T19:20:06.060Z,2.40
2023-01-23T19:22:53.444Z,2.40
2023-01-23T19:25:24.599Z,2.40
2023-01-23T19:27:55.880Z,2.40
2023-01-23T19:30:26.254Z,2.40
2023-01-23T19:32:54.614Z,2.40
2023-01-23T19:35:23.952Z,2.40
2023-01-23T19:37:51.947Z,2.40
2023-01-23T19:40:20.422Z,2.40
2023-01-23T19:42:58.637Z,2.40
2023-01-23T19:45:34.182Z,2.50
2023-01-23T19:48:02.372Z,2.40
2023-01-23T19:50:36.102Z,2.40
2023-01-23T19:53:05.920Z,2.40
2023-01-23T19:55:42.857Z,2.40
2023-01-23T19:58:11.157Z,2.40
2023-01-23T20:00:41.089Z,2.40
2023-01-23T20:03:13.791Z,2.40
2023-01-23T20:05:45.684Z,2.40
2023-01-23T20:08:13.753Z,2.40
2023-01-23T20:10:41.812Z,2.50
2023-01-23T20:13:12.560Z,2.40
2023-01-23T20:15:41.784Z,2.40
2023-01-23T20:18:11.807Z,2.40
2023-01-23T20:20:39.770Z,2.50
2023-01-23T20:23:10.986Z,2.50
2023-01-23T20:25:41.413Z,2.50
2023-01-23T20:28:11.182Z,2.50
2023-01-23T20:30:40.416Z,2.50
2023-01-23T20:33:08.808Z,2.50
2023-01-23T20:35:40.479Z,2.50
2023-01-23T20:38:10.195Z,2.50
2023-01-23T20:40:38.584Z,2.50
2023-01-23T20:43:07.934Z,2.50
2023-01-23T20:45:36.068Z,2.40
2023-01-23T20:48:08.000Z,2.50
2023-01-23T20:50:39.234Z,2.50
2023-01-23T20:53:25.645Z,2.40
2023-01-23T20:55:59.398Z,2.40
2023-01-23T20:58:46.048Z,2.40
2023-01-23T21:01:14.588Z,2.40
2023-01-23T21:03:43.857Z,2.40
2023-01-23T21:06:14.203Z,2.40
2023-01-23T21:08:44.079Z,2.30
2023-01-23T21:11:16.375Z,2.40
2023-01-23T21:13:45.507Z,2.40
2023-01-23T21:16:15.851Z,2.40
2023-01-23T21:18:47.796Z,2.30
2023-01-23T21:21:18.647Z,2.30
2023-01-23T21:23:49.091Z,2.30
2023-01-23T21:26:22.646Z,2.30
2023-01-23T21:28:52.285Z,2.30
2023-01-23T21:31:23.642Z,2.30
2023-01-23T21:33:53.215Z,2.30
2023-01-23T21:36:23.999Z,2.30
2023-01-23T21:38:53.612Z,2.30
2023-01-23T21:41:24.165Z,2.30
2023-01-23T21:43:52.621Z,2.30
2023-01-23T21:46:20.814Z,2.30
2023-01-23T21:48:51.209Z,2.30
2023-01-23T21:51:21.540Z,2.30
2023-01-23T21:53:51.266Z,2.30
2023-01-23T21:56:23.608Z,2.30
2023-01-23T21:58:51.781Z,2.30
2023-01-23T22:01:36.319Z,2.30
2023-01-23T22:04:07.370Z,2.30
2023-01-23T22:06:36.794Z,2.30
2023-01-23T22:09:06.960Z,2.30
2023-01-23T22:11:36.827Z,2.30
2023-01-23T22:14:05.878Z,2.30
2023-01-23T22:16:50.684Z,2.30
2023-01-23T22:19:25.029Z,2.30
2023-01-23T22:21:55.529Z,2.30
2023-01-23T22:24:23.856Z,2.30
2023-01-23T22:26:54.136Z,2.30
2023-01-23T22:29:22.864Z,2.30
2023-01-23T22:31:52.183Z,2.30
2023-01-23T22:34:20.284Z,2.30
2023-01-23T22:36:49.960Z,2.30
2023-01-23T22:39:19.921Z,2.30
2023-01-23T22:41:51.022Z,2.30
2023-01-23T22:44:21.387Z,2.30
2023-01-23T22:46:51.268Z,2.30
2023-01-23T22:49:20.163Z,2.30
2023-01-23T22:51:49.193Z,2.20
2023-01-23T22:54:18.524Z,2.30
2023-01-23T22:56:46.753Z,2.30
2023-01-23T22:59:15.318Z,2.30
2023-01-23T23:01:44.643Z,2.30
2023-01-23T23:04:12.946Z,2.30
2023-01-23T23:06:41.062Z,2.30
2023-01-23T23:09:10.543Z,2.30
2023-01-23T23:11:41.522Z,2.30
2023-01-23T23:14:11.023Z,2.30
2023-01-23T23:16:39.046Z,2.30
2023-01-23T23:19:10.912Z,2.30
2023-01-23T23:21:39.429Z,2.30
2023-01-23T23:24:12.861Z,2.30
2023-01-23T23:26:41.317Z,2.30
2023-01-23T23:29:09.754Z,2.30
2023-01-23T23:31:38.991Z,2.30
2023-01-23T23:34:08.736Z,2.30
2023-01-23T23:36:38.025Z,2.30
2023-01-23T23:39:05.954Z,2.40
2023-01-23T23:41:34.330Z,2.40
2023-01-23T23:44:02.291Z,2.40
2023-01-23T23:46:31.031Z,2.30
2023-01-23T23:48:59.158Z,2.40
2023-01-23T23:51:28.459Z,2.30
2023-01-23T23:53:57.074Z,2.40
2023-01-23T23:56:27.431Z,2.30
2023-01-23T23:58:56.484Z,2.30
